createdAt,value
2018-03-29T00:01:24.859Z,68.65
2018-03-29T00:03:52.448Z,69.24
2018-03-29T00:06:20.129Z,69.18
2018-03-29T00:08:47.641Z,68.21
2018-03-29T00:11:15.128Z,70.58
2018-03-29T00:13:42.631Z,70.41
2018-03-29T00:16:10.118Z,70.20
2018-03-29T00:18:37.707Z,70.60
2018-03-29T00:21:05.192Z,70.81
2018-03-29T00:23:32.699Z,71.65
2018-03-29T00:26:00.199Z,71.55
2018-03-29T00:28:27.735Z,72.01
2018-03-29T00:30:55.211Z,71.50
2018-03-29T00:33:22.751Z,72.24
2018-03-29T00:35:50.229Z,72.86
2018-03-29T00:38:17.723Z,73.01
2018-03-29T00:40:45.243Z,72.66
2018-03-29T00:43:12.787Z,72.57
2018-03-29T00:45:40.274Z,71.80
2018-03-29T00:48:07.792Z,72.51
2018-03-29T00:50:35.281Z,72.20
2018-03-29T00:53:14.788Z,72.34
2018-03-29T00:55:42.271Z,72.71
2018-03-29T00:58:09.791Z,71.64
2018-03-29T01:00:37.339Z,72.54
2018-03-29T01:03:04.825Z,71.89
2018-03-29T01:05:32.340Z,72.65
2018-03-29T01:08:00.255Z,72.37
2018-03-29T01:10:28.025Z,72.82
2018-03-29T01:12:55.580Z,73.33
2018-03-29T01:15:23.087Z,73.10
2018-03-29T01:17:50.577Z,73.28
2018-03-29T01:20:18.087Z,73.24
2018-03-29T01:22:45.567Z,72.85
2018-03-29T01:25:13.100Z,73.35
2018-03-29T01:27:40.591Z,73.93
2018-03-29T01:30:08.099Z,73.06
2018-03-29T01:32:39.410Z,73.70
2018-03-29T01:35:06.923Z,73.46
2018-03-29T01:37:34.527Z,73.98
2018-03-29T01:40:02.177Z,73.81
2018-03-29T01:42:29.663Z,73.83
2018-03-29T01:44:57.163Z,73.43
2018-03-29T01:47:24.639Z,73.80
2018-03-29T01:49:52.151Z,74.17
2018-03-29T01:52:19.630Z,74.25
2018-03-29T01:54:47.163Z,73.93
2018-03-29T01:57:14.659Z,73.86
2018-03-29T01:59:42.177Z,74.25
2018-03-29T02:02:09.691Z,74.74
2018-03-29T02:04:37.211Z,74.60
2018-03-29T02:07:04.693Z,74.81
2018-03-29T02:09:32.175Z,75.01
2018-03-29T02:11:59.709Z,75.20
2018-03-29T02:14:27.219Z,75.16
2018-03-29T02:16:54.715Z,75.43
2018-03-29T02:19:22.198Z,75.55
2018-03-29T02:21:49.712Z,75.21
2018-03-29T02:24:17.215Z,75.50
2018-03-29T02:26:44.734Z,75.71
2018-03-29T02:29:12.214Z,76.08
2018-03-29T02:31:39.722Z,76.03
2018-03-29T02:34:07.220Z,75.86
2018-03-29T02:36:34.779Z,76.10
2018-03-29T02:39:02.339Z,76.70
2018-03-29T02:41:29.846Z,76.39
2018-03-29T02:43:57.335Z,76.29
2018-03-29T02:46:24.861Z,75.84
2018-03-29T02:48:52.353Z,75.88
2018-03-29T02:51:19.931Z,76.39
2018-03-29T02:53:47.492Z,75.62
2018-03-29T02:56:15.000Z,75.83
2018-03-29T02:58:42.475Z,75.65
2018-03-29T03:01:09.984Z,75.95
2018-03-29T03:03:37.469Z,76.39
2018-03-29T03:06:04.984Z,76.50
2018-03-29T03:08:32.545Z,75.99
2018-03-29T03:11:00.056Z,76.47
2018-03-29T03:13:27.565Z,75.89
2018-03-29T03:15:55.071Z,76.12
2018-03-29T03:18:22.542Z,75.77
2018-03-29T03:20:50.331Z,75.99
2018-03-29T03:23:17.926Z,76.02
2018-03-29T03:25:45.571Z,76.04
2018-03-29T03:28:13.072Z,75.01
2018-03-29T03:30:40.556Z,75.10
2018-03-29T03:33:08.068Z,75.18
2018-03-29T03:35:35.572Z,74.92
2018-03-29T03:38:03.079Z,75.17
2018-03-29T03:40:30.588Z,74.98
2018-03-29T03:42:58.095Z,74.62
2018-03-29T03:45:25.583Z,75.14
2018-03-29T03:47:53.085Z,75.31
2018-03-29T03:50:20.626Z,75.35
2018-03-29T03:52:48.135Z,74.66
2018-03-29T03:55:15.663Z,74.28
2018-03-29T03:57:43.231Z,74.33
2018-03-29T04:00:10.717Z,74.00
2018-03-29T04:02:38.248Z,74.34
2018-03-29T04:05:05.802Z,74.40
2018-03-29T04:07:33.314Z,74.89
2018-03-29T04:10:00.860Z,75.77
2018-03-29T04:12:28.368Z,75.09
2018-03-29T04:14:55.851Z,75.32
2018-03-29T04:17:23.373Z,75.30
2018-03-29T04:19:50.868Z,75.29
2018-03-29T04:22:18.370Z,75.71
2018-03-29T04:24:45.856Z,75.77
2018-03-29T04:27:13.363Z,75.93
2018-03-29T04:29:40.857Z,76.34
2018-03-29T04:32:08.368Z,75.85
2018-03-29T04:34:35.853Z,75.62
2018-03-29T04:37:03.429Z,75.77
2018-03-29T04:39:30.915Z,74.74
2018-03-29T04:41:58.426Z,74.94
2018-03-29T04:44:26.035Z,74.63
2018-03-29T04:46:53.557Z,74.40
2018-03-29T04:49:21.039Z,74.67
2018-03-29T04:51:48.539Z,74.69
2018-03-29T04:54:16.090Z,74.02
2018-03-29T04:56:43.596Z,73.79
2018-03-29T04:59:11.087Z,73.95
2018-03-29T05:01:38.678Z,74.16
2018-03-29T05:04:06.221Z,73.59
2018-03-29T05:06:33.707Z,73.93
2018-03-29T05:09:01.227Z,74.50
2018-03-29T05:11:28.711Z,73.81
2018-03-29T05:13:56.216Z,74.19
2018-03-29T05:16:23.721Z,73.82
2018-03-29T05:18:51.231Z,74.15
2018-03-29T05:21:18.715Z,73.83
2018-03-29T05:23:46.239Z,74.21
2018-03-29T05:26:13.719Z,74.45
2018-03-29T05:28:41.237Z,73.81
2018-03-29T05:31:08.754Z,73.98
2018-03-29T05:33:36.259Z,73.70
2018-03-29T05:36:03.752Z,73.35
2018-03-29T05:38:31.331Z,73.24
2018-03-29T05:40:58.813Z,73.34
2018-03-29T05:43:26.336Z,72.89
2018-03-29T05:45:53.819Z,72.44
2018-03-29T05:48:21.368Z,72.72
2018-03-29T05:50:48.854Z,72.23
2018-03-29T05:53:16.365Z,72.26
2018-03-29T05:55:43.852Z,72.33
2018-03-29T05:58:11.387Z,72.38
2018-03-29T06:00:38.964Z,72.30
2018-03-29T06:03:06.600Z,72.41
2018-03-29T06:05:34.087Z,71.73
2018-03-29T06:08:01.650Z,70.81
2018-03-29T06:10:29.213Z,70.84
2018-03-29T06:12:56.724Z,70.70
2018-03-29T06:15:24.231Z,70.35
2018-03-29T06:17:57.310Z,69.37
2018-03-29T06:20:24.824Z,70.34
2018-03-29T06:22:52.344Z,69.04
2018-03-29T06:25:19.868Z,69.03
2018-03-29T06:27:47.376Z,69.98
2018-03-29T06:30:14.883Z,70.27
2018-03-29T06:32:42.391Z,70.62
2018-03-29T06:35:09.895Z,70.20
2018-03-29T06:37:37.383Z,69.13
2018-03-29T06:40:04.884Z,69.29
2018-03-29T06:42:32.396Z,69.30
2018-03-29T06:45:01.906Z,69.97
2018-03-29T06:47:29.472Z,70.05
2018-03-29T06:49:56.987Z,70.26
2018-03-29T06:52:24.472Z,68.50
2018-03-29T06:54:52.014Z,67.09
2018-03-29T06:57:19.605Z,66.54
2018-03-29T06:59:47.135Z,64.54
2018-03-29T07:02:14.620Z,64.35
2018-03-29T07:04:42.179Z,63.28
2018-03-29T07:07:09.668Z,62.26
2018-03-29T07:09:37.199Z,63.19
2018-03-29T07:12:04.688Z,62.14
2018-03-29T07:14:32.231Z,61.22
2018-03-29T07:16:59.795Z,61.39
2018-03-29T07:19:27.324Z,64.34
2018-03-29T07:21:54.807Z,62.91
2018-03-29T07:24:22.352Z,62.31
2018-03-29T07:26:49.933Z,62.82
2018-03-29T07:29:17.455Z,63.72
2018-03-29T07:31:44.940Z,62.41
2018-03-29T07:34:12.452Z,62.78
2018-03-29T07:36:39.937Z,62.79
2018-03-29T07:39:07.452Z,64.08
2018-03-29T07:41:34.931Z,63.16
2018-03-29T07:44:02.472Z,63.03
2018-03-29T07:46:29.965Z,62.85
2018-03-29T07:48:57.466Z,60.93
2018-03-29T07:51:25.013Z,60.75
2018-03-29T07:53:52.523Z,59.30
2018-03-29T07:56:20.010Z,58.43
2018-03-29T07:58:47.563Z,58.69
2018-03-29T08:01:15.055Z,58.03
2018-03-29T08:03:42.558Z,55.18
2018-03-29T08:06:10.064Z,54.92
2018-03-29T08:08:37.652Z,55.91
2018-03-29T08:11:05.151Z,56.71
2018-03-29T08:13:32.648Z,56.95
2018-03-29T08:16:00.213Z,55.57
2018-03-29T08:18:27.725Z,54.99
2018-03-29T08:20:55.244Z,55.71
2018-03-29T08:23:22.729Z,55.13
2018-03-29T08:25:50.253Z,53.86
2018-03-29T08:28:17.787Z,56.11
2018-03-29T08:30:45.303Z,56.34
2018-03-29T08:33:12.910Z,57.45
2018-03-29T08:35:40.424Z,56.71
2018-03-29T08:38:07.913Z,56.49
2018-03-29T08:40:35.429Z,56.29
2018-03-29T08:43:02.923Z,55.60
2018-03-29T08:45:30.427Z,55.59
2018-03-29T08:47:57.949Z,54.89
2018-03-29T08:50:25.458Z,55.21
2018-03-29T08:52:52.967Z,53.80
2018-03-29T08:55:20.520Z,53.59
2018-03-29T08:57:48.011Z,53.71
2018-03-29T09:00:15.554Z,53.43
2018-03-29T09:02:43.058Z,55.29
2018-03-29T09:05:10.577Z,53.35
2018-03-29T09:07:38.063Z,54.47
2018-03-29T09:10:05.580Z,53.40
2018-03-29T09:12:33.060Z,53.38
2018-03-29T09:15:00.578Z,52.98
2018-03-29T09:17:28.079Z,56.30
2018-03-29T09:19:55.583Z,53.63
2018-03-29T09:22:23.070Z,55.21
2018-03-29T09:24:50.739Z,55.96
2018-03-29T09:27:18.239Z,54.96
2018-03-29T09:29:45.766Z,57.02
2018-03-29T09:32:13.247Z,57.37
2018-03-29T09:34:40.768Z,58.40
2018-03-29T09:37:08.279Z,60.44
2018-03-29T09:39:35.796Z,60.15
2018-03-29T09:42:03.321Z,58.23
2018-03-29T09:44:30.807Z,60.31
2018-03-29T09:46:58.367Z,58.35
2018-03-29T09:49:25.857Z,62.35
2018-03-29T09:51:53.383Z,63.00
2018-03-29T09:54:20.919Z,63.98
2018-03-29T09:56:48.460Z,65.00
2018-03-29T09:59:15.946Z,65.81
2018-03-29T10:01:44.352Z,65.48
2018-03-29T10:04:12.779Z,65.72
2018-03-29T10:06:52.167Z,66.61
2018-03-29T10:09:19.652Z,68.03
2018-03-29T10:11:47.172Z,66.53
2018-03-29T10:14:14.750Z,64.72
2018-03-29T10:16:42.266Z,67.16
2018-03-29T10:19:09.866Z,67.75
2018-03-29T10:21:37.428Z,65.71
2018-03-29T10:24:05.899Z,67.41
2018-03-29T10:26:33.464Z,67.36
2018-03-29T10:29:01.015Z,69.39
2018-03-29T10:31:28.525Z,67.51
2018-03-29T10:33:56.020Z,64.69
2018-03-29T10:36:23.555Z,63.75
2018-03-29T10:38:51.040Z,61.93
2018-03-29T10:41:18.572Z,61.88
2018-03-29T10:43:46.072Z,63.92
2018-03-29T10:46:13.579Z,59.52
2018-03-29T10:48:41.066Z,59.41
2018-03-29T10:51:08.612Z,60.50
2018-03-29T10:53:36.195Z,58.49
2018-03-29T10:56:03.760Z,54.19
2018-03-29T10:58:31.260Z,52.91
2018-03-29T11:00:58.772Z,55.53
2018-03-29T11:03:26.263Z,57.19
2018-03-29T11:05:53.832Z,58.53
2018-03-29T11:08:21.323Z,58.92
2018-03-29T11:10:48.836Z,57.53
2018-03-29T11:13:16.599Z,57.53
2018-03-29T11:15:44.103Z,56.27
2018-03-29T11:18:11.610Z,56.63
2018-03-29T11:20:39.150Z,57.78
2018-03-29T11:23:06.666Z,58.21
2018-03-29T11:25:34.168Z,60.09
2018-03-29T11:28:01.675Z,61.68
2018-03-29T11:30:29.184Z,62.24
2018-03-29T11:32:56.711Z,61.77
2018-03-29T11:35:24.191Z,61.22
2018-03-29T11:37:51.741Z,61.32
2018-03-29T11:40:19.227Z,63.27
2018-03-29T11:42:46.739Z,62.41
2018-03-29T11:45:14.231Z,62.78
2018-03-29T11:47:41.816Z,64.79
2018-03-29T11:50:09.377Z,63.82
2018-03-29T11:52:36.915Z,63.92
2018-03-29T11:55:04.476Z,64.37
2018-03-29T11:57:32.039Z,64.51
2018-03-29T11:59:59.519Z,65.94
2018-03-29T12:02:27.175Z,67.49
2018-03-29T12:04:54.699Z,68.34
2018-03-29T12:07:22.398Z,68.71
2018-03-29T12:09:49.941Z,70.21
2018-03-29T12:12:17.472Z,71.64
2018-03-29T12:14:44.985Z,72.65
2018-03-29T12:17:12.524Z,71.97
2018-03-29T12:19:40.013Z,74.05
2018-03-29T12:22:07.546Z,74.65
2018-03-29T12:24:35.092Z,74.99
2018-03-29T12:27:02.663Z,75.28
2018-03-29T12:29:30.159Z,75.39
2018-03-29T12:31:57.694Z,73.76
2018-03-29T12:34:25.222Z,73.68
2018-03-29T12:36:52.861Z,73.55
2018-03-29T12:39:20.352Z,73.70
2018-03-29T12:41:47.855Z,74.30
2018-03-29T12:44:15.340Z,73.72
2018-03-29T12:46:42.815Z,73.77
2018-03-29T12:49:10.384Z,73.43
2018-03-29T12:51:37.945Z,74.15
2018-03-29T12:54:05.471Z,74.03
2018-03-29T12:56:44.671Z,71.59
2018-03-29T12:59:12.188Z,72.07
2018-03-29T13:01:39.756Z,72.23
2018-03-29T13:04:07.311Z,71.38
2018-03-29T13:06:34.804Z,71.19
2018-03-29T13:09:02.326Z,69.61
2018-03-29T13:11:29.820Z,71.82
2018-03-29T13:13:57.340Z,69.69
2018-03-29T13:16:24.829Z,68.92
2018-03-29T13:18:52.347Z,70.52
2018-03-29T13:21:19.843Z,70.22
2018-03-29T13:23:47.396Z,70.12
2018-03-29T13:26:14.939Z,67.20
2018-03-29T13:28:42.464Z,68.23
2018-03-29T13:31:10.154Z,68.53
2018-03-29T13:33:37.693Z,68.62
2018-03-29T13:36:05.218Z,68.00
2018-03-29T13:38:32.752Z,68.27
2018-03-29T13:41:00.239Z,68.38
2018-03-29T13:43:27.772Z,69.23
2018-03-29T13:45:55.269Z,69.05
2018-03-29T13:48:22.796Z,68.86
2018-03-29T13:50:50.276Z,69.07
2018-03-29T13:53:17.805Z,69.42
2018-03-29T13:55:45.419Z,68.01
2018-03-29T13:58:12.928Z,67.66
2018-03-29T14:00:40.406Z,66.16
2018-03-29T14:03:07.922Z,64.92
2018-03-29T14:05:35.435Z,64.79
2018-03-29T14:08:02.945Z,63.25
2018-03-29T14:10:30.525Z,61.57
2018-03-29T14:12:58.010Z,60.28
2018-03-29T14:15:26.475Z,58.01
2018-03-29T14:17:54.241Z,57.70
2018-03-29T14:20:22.059Z,57.25
2018-03-29T14:22:49.872Z,55.94
2018-03-29T14:25:17.452Z,54.80
2018-03-29T14:27:44.995Z,52.19
2018-03-29T14:30:12.758Z,52.38
2018-03-29T14:32:40.469Z,51.85
2018-03-29T14:35:08.134Z,50.25
2018-03-29T14:37:35.692Z,49.14
2018-03-29T14:40:03.507Z,44.05
2018-03-29T14:42:31.274Z,36.88
2018-03-29T14:44:58.936Z,35.29
2018-03-29T14:47:26.544Z,32.92
2018-03-29T14:49:54.263Z,31.18
2018-03-29T14:52:22.024Z,33.18
2018-03-29T14:54:49.791Z,32.92
2018-03-29T14:57:17.554Z,32.23
2018-03-29T14:59:45.317Z,31.39
2018-03-29T15:02:12.992Z,29.13
2018-03-29T15:04:40.693Z,31.11
2018-03-29T15:07:08.253Z,32.75
2018-03-29T15:09:35.772Z,31.86
2018-03-29T15:12:03.303Z,36.32
2018-03-29T15:14:30.837Z,39.62
2018-03-29T15:16:58.332Z,41.81
2018-03-29T15:19:25.880Z,41.78
2018-03-29T15:21:53.367Z,40.52
2018-03-29T15:24:20.911Z,42.53
2018-03-29T15:26:48.520Z,44.66
2018-03-29T15:29:16.072Z,48.39
2018-03-29T15:31:45.277Z,44.23
2018-03-29T15:34:16.005Z,44.02
2018-03-29T15:36:44.427Z,40.47
2018-03-29T15:39:14.255Z,40.94
2018-03-29T15:41:42.887Z,42.97
2018-03-29T15:44:10.522Z,40.59
2018-03-29T15:46:38.022Z,46.09
2018-03-29T15:49:05.545Z,44.80
2018-03-29T15:51:33.028Z,46.95
2018-03-29T15:54:00.558Z,50.62
2018-03-29T15:56:28.091Z,52.43
2018-03-29T15:58:55.578Z,54.85
2018-03-29T16:01:23.144Z,54.75
2018-03-29T16:03:50.712Z,55.10
2018-03-29T16:06:18.220Z,53.78
2018-03-29T16:08:45.707Z,53.73
2018-03-29T16:11:13.277Z,52.25
2018-03-29T16:13:40.832Z,52.56
2018-03-29T16:16:08.400Z,51.65
2018-03-29T16:18:35.951Z,52.22
2018-03-29T16:21:03.515Z,50.91
2018-03-29T16:23:31.000Z,45.38
2018-03-29T16:25:58.528Z,42.94
2018-03-29T16:28:26.020Z,47.54
2018-03-29T16:30:53.541Z,50.08
2018-03-29T16:33:21.068Z,51.06
2018-03-29T16:35:48.679Z,52.62
2018-03-29T16:38:16.171Z,53.52
2018-03-29T16:40:43.676Z,53.09
2018-03-29T16:43:11.196Z,53.21
2018-03-29T16:45:38.699Z,53.72
2018-03-29T16:48:06.181Z,46.59
2018-03-29T16:50:33.803Z,40.34
2018-03-29T16:53:01.363Z,41.47
2018-03-29T16:55:28.875Z,36.11
2018-03-29T16:57:56.401Z,33.25
2018-03-29T17:00:23.911Z,35.00
2018-03-29T17:02:51.408Z,38.37
2018-03-29T17:05:18.919Z,41.56
2018-03-29T17:07:46.413Z,46.08
2018-03-29T17:10:13.963Z,49.19
2018-03-29T17:12:41.448Z,51.33
2018-03-29T17:15:09.003Z,52.85
2018-03-29T17:17:36.498Z,54.84
2018-03-29T17:20:04.032Z,55.75
2018-03-29T17:22:31.544Z,57.00
2018-03-29T17:24:59.051Z,59.79
2018-03-29T17:27:26.614Z,61.16
2018-03-29T17:29:54.112Z,62.68
2018-03-29T17:32:21.612Z,63.02
2018-03-29T17:34:49.100Z,64.18
2018-03-29T17:37:16.657Z,64.82
2018-03-29T17:39:44.207Z,66.06
2018-03-29T17:42:11.707Z,67.23
2018-03-29T17:44:39.217Z,67.61
2018-03-29T17:47:06.751Z,68.45
2018-03-29T17:49:34.230Z,68.19
2018-03-29T17:52:01.816Z,68.01
2018-03-29T17:54:29.361Z,68.56
2018-03-29T17:56:56.965Z,68.40
2018-03-29T17:59:24.467Z,68.88
2018-03-29T18:01:52.872Z,69.51
2018-03-29T18:04:20.363Z,69.67
2018-03-29T18:06:47.883Z,69.20
2018-03-29T18:09:15.432Z,69.61
2018-03-29T18:11:42.933Z,69.91
2018-03-29T18:14:10.408Z,69.57
2018-03-29T18:16:37.914Z,69.77
2018-03-29T18:19:05.439Z,69.78
2018-03-29T18:21:32.949Z,70.13
2018-03-29T18:24:00.510Z,70.19
2018-03-29T18:26:28.091Z,70.82
2018-03-29T18:28:55.608Z,71.03
2018-03-29T18:31:23.146Z,70.82
2018-03-29T18:33:50.699Z,71.43
2018-03-29T18:36:18.183Z,71.50
2018-03-29T18:38:45.707Z,71.23
2018-03-29T18:41:13.187Z,71.37
2018-03-29T18:43:40.860Z,71.52
2018-03-29T18:46:08.348Z,71.32
2018-03-29T18:48:35.900Z,71.33
2018-03-29T18:51:03.418Z,71.10
2018-03-29T18:53:30.931Z,71.24
2018-03-29T18:55:58.448Z,71.36
2018-03-29T18:58:25.954Z,71.76
2018-03-29T19:00:53.451Z,72.08
2018-03-29T19:03:21.057Z,72.47
2018-03-29T19:05:48.565Z,72.21
2018-03-29T19:08:16.096Z,72.75
2018-03-29T19:10:43.619Z,73.27
2018-03-29T19:13:11.144Z,73.17
2018-03-29T19:15:38.637Z,72.76
2018-03-29T19:18:06.323Z,73.20
2018-03-29T19:20:33.932Z,73.86
2018-03-29T19:23:01.456Z,74.30
2018-03-29T19:25:28.966Z,74.50
2018-03-29T19:27:56.470Z,74.37
2018-03-29T19:30:23.972Z,74.41
2018-03-29T19:32:51.471Z,74.14
2018-03-29T19:35:19.013Z,74.64
2018-03-29T19:37:46.520Z,73.71
2018-03-29T19:40:14.027Z,73.10
2018-03-29T19:42:41.516Z,73.23
2018-03-29T19:45:09.035Z,73.76
2018-03-29T19:47:36.588Z,74.35
2018-03-29T19:50:04.100Z,74.69
2018-03-29T19:52:31.594Z,75.05
2018-03-29T19:54:59.109Z,75.46
2018-03-29T19:57:26.614Z,75.01
2018-03-29T19:59:54.157Z,75.65
2018-03-29T20:02:21.656Z,75.37
2018-03-29T20:04:49.155Z,75.38
2018-03-29T20:07:16.644Z,74.76
2018-03-29T20:09:44.192Z,74.24
2018-03-29T20:12:11.783Z,74.90
2018-03-29T20:14:39.288Z,75.54
2018-03-29T20:17:06.773Z,75.71
2018-03-29T20:19:34.287Z,76.17
2018-03-29T20:22:01.841Z,76.64
2018-03-29T20:24:29.390Z,77.12
2018-03-29T20:26:56.870Z,77.15
2018-03-29T20:29:24.396Z,76.88
2018-03-29T20:31:51.924Z,77.09
2018-03-29T20:34:19.450Z,77.31
2018-03-29T20:36:47.089Z,77.16
2018-03-29T20:39:14.593Z,75.86
2018-03-29T20:41:42.101Z,75.59
2018-03-29T20:44:09.620Z,75.70
2018-03-29T20:46:37.198Z,76.17
2018-03-29T20:49:04.825Z,76.40
2018-03-29T20:51:32.368Z,76.11
2018-03-29T20:53:59.858Z,76.17
2018-03-29T20:56:27.433Z,76.37
2018-03-29T20:58:55.332Z,76.23
2018-03-29T21:01:22.845Z,75.88
2018-03-29T21:03:50.351Z,76.13
2018-03-29T21:06:17.907Z,76.50
2018-03-29T21:08:45.459Z,76.40
2018-03-29T21:11:12.978Z,76.66
2018-03-29T21:13:40.470Z,76.84
2018-03-29T21:16:07.992Z,76.26
2018-03-29T21:18:35.481Z,76.44
2018-03-29T21:21:03.047Z,76.70
2018-03-29T21:23:30.544Z,76.53
2018-03-29T21:25:58.081Z,76.92
2018-03-29T21:28:25.619Z,76.86
2018-03-29T21:30:53.144Z,77.55
2018-03-29T21:33:20.687Z,77.33
2018-03-29T21:35:48.251Z,77.31
2018-03-29T21:38:15.740Z,77.64
2018-03-29T21:40:43.252Z,77.65
2018-03-29T21:43:10.750Z,77.80
2018-03-29T21:45:38.255Z,77.83
2018-03-29T21:48:05.743Z,78.15
2018-03-29T21:50:33.256Z,78.09
2018-03-29T21:53:00.760Z,77.93
2018-03-29T21:55:28.318Z,77.89
2018-03-29T21:57:55.806Z,77.78
2018-03-29T22:00:23.312Z,78.15
2018-03-29T22:02:50.840Z,78.15
2018-03-29T22:05:18.427Z,78.37
2018-03-29T22:07:45.929Z,78.94
2018-03-29T22:10:13.420Z,78.58
2018-03-29T22:12:40.942Z,78.54
2018-03-29T22:15:08.427Z,78.64
2018-03-29T22:17:35.938Z,78.43
2018-03-29T22:20:03.419Z,78.26
2018-03-29T22:22:30.928Z,78.11
2018-03-29T22:24:58.444Z,78.16
2018-03-29T22:27:25.975Z,78.26
2018-03-29T22:29:53.508Z,78.48
2018-03-29T22:32:21.084Z,78.22
2018-03-29T22:34:48.589Z,78.29
2018-03-29T22:37:16.108Z,78.29
2018-03-29T22:39:43.646Z,78.67
2018-03-29T22:42:11.158Z,78.57
2018-03-29T22:44:38.638Z,78.54
2018-03-29T22:47:07.128Z,78.52
2018-03-29T22:49:34.699Z,78.28
2018-03-29T22:52:02.216Z,78.38
2018-03-29T22:54:29.746Z,78.23
2018-03-29T22:56:57.286Z,79.01
2018-03-29T22:59:24.767Z,78.91
2018-03-29T23:01:52.304Z,79.04
2018-03-29T23:04:19.784Z,78.87
2018-03-29T23:06:47.286Z,78.39
2018-03-29T23:09:14.758Z,77.97
2018-03-29T23:11:42.276Z,77.44
2018-03-29T23:14:09.809Z,77.62
2018-03-29T23:16:37.384Z,77.54
2018-03-29T23:19:04.901Z,77.66
2018-03-29T23:21:32.386Z,77.63
2018-03-29T23:23:59.899Z,77.46
2018-03-29T23:26:28.451Z,76.99
2018-03-29T23:28:56.055Z,77.32
2018-03-29T23:31:23.545Z,76.96
2018-03-29T23:33:51.076Z,76.75
2018-03-29T23:36:18.568Z,76.59
2018-03-29T23:38:46.092Z,76.44
2018-03-29T23:41:13.570Z,76.63
2018-03-29T23:43:41.111Z,76.88
2018-03-29T23:46:08.595Z,77.10
2018-03-29T23:48:36.119Z,77.45
2018-03-29T23:51:03.611Z,77.15
2018-03-29T23:53:31.123Z,76.98
2018-03-29T23:55:58.622Z,76.39
2018-03-29T23:58:26.159Z,76.08
